Hayataka Maru — JJ4041 — position and weather

sailwx.info

Track history (hours):
 
Tides and Currents Weather Stations Pressure Air Temp Water Temp Dewpoint Dewpoint Depression Visibility Wind Speed Wind Dir Waves Ship Positions

Hayataka Maru

Last reported at 2018-Feb-21 00:36 UTC. Time now 2018-Feb-21 09:20 UTC.
Position N 34°46' E 134°39'.

Length 37 m.

MMSI: 431301625.

Date/timePositionNaut miles runAvg speedWind from/ knotsBaromVisibWave heightAir tempDewpointWater temp
2018-Feb-21 00:36N 34°46' E 134°39'2 7.4
2018-Feb-21 00:20N 34°45' E 134°41'1 3.1
2018-Feb-21 00:00N 34°46' E 134°41'0 0.1
2018-Feb-20 23:28N 34°46' E 134°41'0 0.2
2018-Feb-20 22:56N 34°46' E 134°41'0 0.1
2018-Feb-20 22:17N 34°46' E 134°41'0 0.2
2018-Feb-20 21:54N 34°46' E 134°41'0 0.0
2018-Feb-20 21:17N 34°46' E 134°41'0 0.1
2018-Feb-20 20:51N 34°46' E 134°41'0 0.1
2018-Feb-20 20:19N 34°46' E 134°41'0 0.0
2018-Feb-20 19:53N 34°46' E 134°41'0 0.0
2018-Feb-20 19:24N 34°46' E 134°41'0 0.1
2018-Feb-20 18:55N 34°46' E 134°41'0 0.1
2018-Feb-20 18:24N 34°46' E 134°41'0 0.1
2018-Feb-20 18:00N 34°46' E 134°41'0 0.0
2018-Feb-20 17:29N 34°46' E 134°41'0 0.0
2018-Feb-20 12:08N 34°46' E 134°41'0 0.2
2018-Feb-20 10:53N 34°46' E 134°41'0 0.1
2018-Feb-20 07:37N 34°46' E 134°41'0 0.1
2018-Feb-20 06:24N 34°46' E 134°41'0 0.1
2018-Feb-20 04:26N 34°46' E 134°41'0 0.2
2018-Feb-20 03:29N 34°46' E 134°41'2 3.6
2018-Feb-20 03:00N 34°44' E 134°41'5 9.1
2018-Feb-20 02:30N 34°40' E 134°41'2 4.6
2018-Feb-20 02:00N 34°42' E 134°41'5 1.3
2018-Feb-19 22:36N 34°46' E 134°39'0 5.5
2018-Feb-19 22:31N 34°46' E 134°39'1 1.1
2018-Feb-19 22:00N 34°46' E 134°40'0 0.0
2018-Feb-19 05:34N 34°46' E 134°39'1 6.4
2018-Feb-19 05:20N 34°45' E 134°40'1 0.7
2018-Feb-19 03:32N 34°46' E 134°39'210.2
2018-Feb-19 03:22N 34°45' E 134°41'1 1.0
2018-Feb-19 02:44N 34°46' E 134°41'0 1.4
2018-Feb-19 02:22N 34°46' E 134°41'1 2.3
2018-Feb-19 01:47N 34°46' E 134°39'6 9.8
2018-Feb-19 01:10N 34°43' E 134°45'212.3
2018-Feb-19 01:00N 34°42' E 134°47'3 2.3
2018-Feb-18 23:43N 34°43' E 134°51'1 2.6
2018-Feb-18 23:30N 34°43' E 134°51'0 0.4
2018-Feb-18 23:00N 34°43' E 134°51'2 3.6
2018-Feb-18 22:30N 34°41' E 134°49'2 3.1
2018-Feb-18 22:01N 34°40' E 134°49'3 6.1
2018-Feb-18 21:30N 34°41' E 134°46'611.8
2018-Feb-18 20:58N 34°45' E 134°40'1 0.1
2018-Feb-18 05:10N 34°46' E 134°39'1 5.4
2018-Feb-18 05:00N 34°46' E 134°40'1 0.7
2018-Feb-18 03:27N 34°46' E 134°41'3 5.6
2018-Feb-18 03:00N 34°43' E 134°41'4 7.2
2018-Feb-18 02:30N 34°40' E 134°41'2 4.8
2018-Feb-18 02:00N 34°42' E 134°41'4 0.2
2018-Feb-17 05:43N 34°46' E 134°39'0 0.8
2018-Feb-17 05:10N 34°46' E 134°39'0 2.9
2018-Feb-17 05:00N 34°46' E 134°39'2 3.6
2018-Feb-17 04:30N 34°44' E 134°39'2 0.1
2018-Feb-16 08:47N 34°46' E 134°39'1 4.1
2018-Feb-16 08:29N 34°46' E 134°38'0 0.3
2018-Feb-16 08:00N 34°46' E 134°38'2 3.6
2018-Feb-16 07:30N 34°44' E 134°37'1 1.4
2018-Feb-16 07:00N 34°44' E 134°37'3 0.8
2018-Feb-16 03:10N 34°46' E 134°39'2 7.9
2018-Feb-16 02:56N 34°45' E 134°41'1 0.8
2018-Feb-16 02:02N 34°46' E 134°41'1 8.1
2018-Feb-16 01:54N 34°46' E 134°40'1 0.0
2018-Feb-15 05:30N 34°46' E 134°39'2 0.9
2018-Feb-15 03:36N 34°46' E 134°41'0 2.6
2018-Feb-15 03:30N 34°45' E 134°41'3 6.9
2018-Feb-15 03:00N 34°42' E 134°41'2 4.4
2018-Feb-15 02:30N 34°40' E 134°41'3 6.0
2018-Feb-15 02:00N 34°42' E 134°44'4 3.7
2018-Feb-15 00:53N 34°43' E 134°49'0 0.9
2018-Feb-15 00:29N 34°43' E 134°49'0 0.5
2018-Feb-14 23:56N 34°43' E 134°49'2 5.1
2018-Feb-14 23:30N 34°43' E 134°46'611.2
2018-Feb-14 23:00N 34°45' E 134°40'1 0.1
2018-Feb-14 02:30N 34°46' E 134°39'1 1.0
2018-Feb-14 01:11N 34°46' E 134°41'1 7.4
2018-Feb-14 01:00N 34°46' E 134°39'0 0.0
2018-Feb-12 04:44N 34°46' E 134°39'2 9.8
2018-Feb-12 04:30N 34°45' E 134°41'2 0.5
2018-Feb-11 23:40N 34°46' E 134°39'0 0.0
2018-Feb-11 01:47N 34°47' E 134°39'3 8.4
2018-Feb-11 01:28N 34°45' E 134°41'  
Track history (hours):
 
Tides and Currents Weather Stations Pressure Air Temp Water Temp Dewpoint Dewpoint Depression Visibility Wind Speed Wind Dir Waves Ship Positions

Hayataka Maru

Last reported at 2018-Feb-21 00:36 UTC. Time now 2018-Feb-21 09:20 UTC.
Position N 34°46' E 134°39'.

Length 37 m.

MMSI: 431301625.

Date/timePositionNaut miles runAvg speedWind from/ knotsBaromVisibWave heightAir tempDewpointWater temp
2018-Feb-21 00:36N 34°46' E 134°39'2 7.4
2018-Feb-21 00:20N 34°45' E 134°41'1 3.1
2018-Feb-21 00:00N 34°46' E 134°41'0 0.1
2018-Feb-20 23:28N 34°46' E 134°41'0 0.2
2018-Feb-20 22:56N 34°46' E 134°41'0 0.1
2018-Feb-20 22:17N 34°46' E 134°41'0 0.2
2018-Feb-20 21:54N 34°46' E 134°41'0 0.0
2018-Feb-20 21:17N 34°46' E 134°41'0 0.1
2018-Feb-20 20:51N 34°46' E 134°41'0 0.1
2018-Feb-20 20:19N 34°46' E 134°41'0 0.0
2018-Feb-20 19:53N 34°46' E 134°41'0 0.0
2018-Feb-20 19:24N 34°46' E 134°41'0 0.1
2018-Feb-20 18:55N 34°46' E 134°41'0 0.1
2018-Feb-20 18:24N 34°46' E 134°41'0 0.1
2018-Feb-20 18:00N 34°46' E 134°41'0 0.0
2018-Feb-20 17:29N 34°46' E 134°41'0 0.0
2018-Feb-20 12:08N 34°46' E 134°41'0 0.2
2018-Feb-20 10:53N 34°46' E 134°41'0 0.1
2018-Feb-20 07:37N 34°46' E 134°41'0 0.1
2018-Feb-20 06:24N 34°46' E 134°41'0 0.1
2018-Feb-20 04:26N 34°46' E 134°41'0 0.2
2018-Feb-20 03:29N 34°46' E 134°41'2 3.6
2018-Feb-20 03:00N 34°44' E 134°41'5 9.1
2018-Feb-20 02:30N 34°40' E 134°41'2 4.6
2018-Feb-20 02:00N 34°42' E 134°41'5 1.3
2018-Feb-19 22:36N 34°46' E 134°39'0 5.5
2018-Feb-19 22:31N 34°46' E 134°39'1 1.1
2018-Feb-19 22:00N 34°46' E 134°40'0 0.0
2018-Feb-19 05:34N 34°46' E 134°39'1 6.4
2018-Feb-19 05:20N 34°45' E 134°40'1 0.7
2018-Feb-19 03:32N 34°46' E 134°39'210.2
2018-Feb-19 03:22N 34°45' E 134°41'1 1.0
2018-Feb-19 02:44N 34°46' E 134°41'0 1.4
2018-Feb-19 02:22N 34°46' E 134°41'1 2.3
2018-Feb-19 01:47N 34°46' E 134°39'6 9.8
2018-Feb-19 01:10N 34°43' E 134°45'212.3
2018-Feb-19 01:00N 34°42' E 134°47'3 2.3
2018-Feb-18 23:43N 34°43' E 134°51'1 2.6
2018-Feb-18 23:30N 34°43' E 134°51'0 0.4
2018-Feb-18 23:00N 34°43' E 134°51'2 3.6
2018-Feb-18 22:30N 34°41' E 134°49'2 3.1
2018-Feb-18 22:01N 34°40' E 134°49'3 6.1
2018-Feb-18 21:30N 34°41' E 134°46'611.8
2018-Feb-18 20:58N 34°45' E 134°40'1 0.1
2018-Feb-18 05:10N 34°46' E 134°39'1 5.4
2018-Feb-18 05:00N 34°46' E 134°40'1 0.7
2018-Feb-18 03:27N 34°46' E 134°41'3 5.6
2018-Feb-18 03:00N 34°43' E 134°41'4 7.2
2018-Feb-18 02:30N 34°40' E 134°41'2 4.8
2018-Feb-18 02:00N 34°42' E 134°41'4 0.2
2018-Feb-17 05:43N 34°46' E 134°39'0 0.8
2018-Feb-17 05:10N 34°46' E 134°39'0 2.9
2018-Feb-17 05:00N 34°46' E 134°39'2 3.6
2018-Feb-17 04:30N 34°44' E 134°39'2 0.1
2018-Feb-16 08:47N 34°46' E 134°39'1 4.1
2018-Feb-16 08:29N 34°46' E 134°38'0 0.3
2018-Feb-16 08:00N 34°46' E 134°38'2 3.6
2018-Feb-16 07:30N 34°44' E 134°37'1 1.4
2018-Feb-16 07:00N 34°44' E 134°37'3 0.8
2018-Feb-16 03:10N 34°46' E 134°39'2 7.9
2018-Feb-16 02:56N 34°45' E 134°41'1 0.8
2018-Feb-16 02:02N 34°46' E 134°41'1 8.1
2018-Feb-16 01:54N 34°46' E 134°40'1 0.0
2018-Feb-15 05:30N 34°46' E 134°39'2 0.9
2018-Feb-15 03:36N 34°46' E 134°41'0 2.6
2018-Feb-15 03:30N 34°45' E 134°41'3 6.9
2018-Feb-15 03:00N 34°42' E 134°41'2 4.4
2018-Feb-15 02:30N 34°40' E 134°41'3 6.0
2018-Feb-15 02:00N 34°42' E 134°44'4 3.7
2018-Feb-15 00:53N 34°43' E 134°49'0 0.9
2018-Feb-15 00:29N 34°43' E 134°49'0 0.5
2018-Feb-14 23:56N 34°43' E 134°49'2 5.1
2018-Feb-14 23:30N 34°43' E 134°46'611.2
2018-Feb-14 23:00N 34°45' E 134°40'1 0.1
2018-Feb-14 02:30N 34°46' E 134°39'1 1.0
2018-Feb-14 01:11N 34°46' E 134°41'1 7.4
2018-Feb-14 01:00N 34°46' E 134°39'0 0.0
2018-Feb-12 04:44N 34°46' E 134°39'2 9.8
2018-Feb-12 04:30N 34°45' E 134°41'2 0.5
2018-Feb-11 23:40N 34°46' E 134°39'0 0.0
2018-Feb-11 01:47N 34°47' E 134°39'3 8.4
2018-Feb-11 01:28N 34°45' E 134°41'  

Dump ship's entire track history